createdAt,value
2024-03-02T00:02:34.765Z,2.89
2024-03-02T00:07:36.749Z,3.02
2024-03-02T00:12:41.976Z,3.02
2024-03-02T00:17:44.090Z,2.90
2024-03-02T00:22:48.051Z,2.77
2024-03-02T00:27:51.666Z,2.75
2024-03-02T00:32:53.847Z,2.77
2024-03-02T00:37:56.269Z,2.85
2024-03-02T00:42:58.404Z,2.81
2024-03-02T00:48:00.397Z,2.76
2024-03-02T00:53:03.271Z,2.74
2024-03-02T00:58:05.351Z,2.77
2024-03-02T01:03:07.419Z,2.75
2024-03-02T01:08:10.228Z,2.77
2024-03-02T01:13:12.278Z,2.63
2024-03-02T01:18:14.356Z,2.50
2024-03-02T01:23:16.406Z,2.39
2024-03-02T01:28:18.663Z,2.43
2024-03-02T01:33:21.174Z,2.47
2024-03-02T01:38:23.421Z,2.62
2024-03-02T01:43:25.452Z,2.58
2024-03-02T01:48:27.576Z,2.61
2024-03-02T01:53:29.908Z,2.68
2024-03-02T01:58:31.981Z,2.81
2024-03-02T02:03:34.019Z,2.88
2024-03-02T02:08:36.107Z,2.88
2024-03-02T02:13:38.112Z,2.76
2024-03-02T02:18:40.178Z,2.84
2024-03-02T02:23:42.170Z,2.88
2024-03-02T02:28:44.164Z,2.82
2024-03-02T02:33:46.186Z,2.88
2024-03-02T02:38:48.344Z,2.82
2024-03-02T02:43:50.316Z,2.67
2024-03-02T02:48:52.463Z,2.65
2024-03-02T02:53:54.596Z,2.75
2024-03-02T02:58:56.665Z,2.60
2024-03-02T03:03:58.701Z,2.56
2024-03-02T03:09:00.798Z,2.58
2024-03-02T03:14:02.844Z,2.57
2024-03-02T03:19:04.990Z,2.51
2024-03-02T03:24:07.060Z,2.45
2024-03-02T03:29:09.132Z,2.50
2024-03-02T03:34:11.333Z,2.49
2024-03-02T03:39:13.348Z,2.46
2024-03-02T03:44:15.439Z,2.33
2024-03-02T03:49:17.446Z,2.27
2024-03-02T03:54:19.602Z,2.25
2024-03-02T03:59:21.621Z,2.37
2024-03-02T04:04:23.646Z,2.33
2024-03-02T04:09:25.729Z,2.35
2024-03-02T04:14:27.725Z,2.36
2024-03-02T04:19:29.784Z,2.36
2024-03-02T04:24:32.001Z,2.28
2024-03-02T04:29:34.077Z,2.35
2024-03-02T04:34:36.128Z,2.29
2024-03-02T04:39:38.268Z,2.35
2024-03-02T04:44:40.440Z,2.28
2024-03-02T04:49:42.528Z,2.08
2024-03-02T04:54:44.930Z,2.17
2024-03-02T04:59:47.016Z,2.03
2024-03-02T05:04:49.117Z,2.09
2024-03-02T05:09:51.200Z,2.16
2024-03-02T05:14:53.249Z,2.03
2024-03-02T05:19:55.337Z,2.05
2024-03-02T05:24:57.418Z,2.24
2024-03-02T05:29:59.772Z,2.24
2024-03-02T05:35:01.751Z,2.29
2024-03-02T05:40:04.228Z,2.42
2024-03-02T05:45:06.449Z,2.33
2024-03-02T05:50:08.862Z,2.41
2024-03-02T05:55:10.918Z,2.51
2024-03-02T06:00:13.336Z,2.44
2024-03-02T06:05:15.804Z,2.29
2024-03-02T06:10:17.946Z,2.27
2024-03-02T06:15:20.323Z,2.28
2024-03-02T06:20:22.335Z,2.29
2024-03-02T06:25:24.316Z,2.49
2024-03-02T06:30:26.327Z,2.68
2024-03-02T06:35:28.362Z,2.72
2024-03-02T06:40:30.301Z,2.60
2024-03-02T06:45:32.394Z,2.63
2024-03-02T06:50:34.558Z,2.75
2024-03-02T06:55:36.546Z,2.90
2024-03-02T07:00:38.660Z,2.86
2024-03-02T07:05:40.851Z,2.82
2024-03-02T07:10:42.970Z,3.01
2024-03-02T07:15:45.083Z,3.01
2024-03-02T07:20:47.107Z,3.16
2024-03-02T07:31:06.561Z,2.91
2024-03-02T07:36:08.693Z,2.92
2024-03-02T07:41:10.826Z,2.96
2024-03-02T07:46:12.928Z,2.76
2024-03-02T07:51:15.119Z,2.82
2024-03-02T07:56:17.134Z,2.98
2024-03-02T08:01:19.274Z,3.12
2024-03-02T08:06:21.357Z,3.18
2024-03-02T08:11:23.556Z,3.13
2024-03-02T08:16:25.564Z,3.41
2024-03-02T08:21:27.668Z,3.50
2024-03-02T08:26:29.619Z,3.68
2024-03-02T08:31:31.960Z,3.80
2024-03-02T08:36:34.144Z,3.57
2024-03-02T08:41:36.242Z,3.41
2024-03-02T08:46:38.239Z,3.42
2024-03-02T08:51:40.289Z,3.76
2024-03-02T08:56:42.559Z,3.73
2024-03-02T09:01:44.674Z,3.93
2024-03-02T09:06:46.694Z,4.02
2024-03-02T09:11:48.660Z,4.29
2024-03-02T09:16:50.809Z,4.05
2024-03-02T09:21:52.893Z,4.10
2024-03-02T09:26:54.988Z,3.86
2024-03-02T09:31:57.059Z,3.87
2024-03-02T09:36:59.433Z,4.06
2024-03-02T09:42:01.520Z,4.40
2024-03-02T09:47:03.623Z,4.88
2024-03-02T09:52:05.811Z,4.98
2024-03-02T09:57:08.235Z,5.30
2024-03-02T10:02:10.285Z,5.18
2024-03-02T10:07:13.855Z,5.28
2024-03-02T10:12:17.296Z,4.90
2024-03-02T10:17:19.517Z,4.89
2024-03-02T10:22:21.424Z,4.97
2024-03-02T10:27:28.673Z,4.79
2024-03-02T10:32:30.945Z,4.99
2024-03-02T10:37:33.297Z,4.62
2024-03-02T10:42:35.634Z,4.76
2024-03-02T10:47:38.545Z,5.04
2024-03-02T10:52:40.676Z,5.11
2024-03-02T10:57:53.480Z,4.99
2024-03-02T11:02:59.418Z,4.85
2024-03-02T11:08:07.923Z,4.83
2024-03-02T11:13:21.012Z,4.91
2024-03-02T11:18:23.143Z,5.12
2024-03-02T11:23:34.451Z,4.84
2024-03-02T11:28:37.056Z,4.92
2024-03-02T11:33:40.235Z,4.49
2024-03-02T11:38:42.369Z,4.18
2024-03-02T11:43:44.371Z,4.35
2024-03-02T11:48:46.549Z,4.59
2024-03-02T11:53:48.725Z,4.55
2024-03-02T11:58:53.737Z,4.42
2024-03-02T12:03:56.163Z,4.29
2024-03-02T12:08:58.271Z,4.19
2024-03-02T12:14:00.256Z,4.17
2024-03-02T12:19:02.261Z,4.09
2024-03-02T12:24:04.391Z,3.71
2024-03-02T12:29:06.739Z,3.69
2024-03-02T12:34:09.051Z,3.59
2024-03-02T12:39:11.027Z,3.81
2024-03-02T12:44:13.091Z,3.63
2024-03-02T12:49:16.159Z,3.74
2024-03-02T12:54:18.367Z,3.34
2024-03-02T12:59:24.815Z,3.47
2024-03-02T13:04:27.285Z,3.46
2024-03-02T13:09:29.370Z,3.18
2024-03-02T13:14:34.330Z,3.43
2024-03-02T13:19:36.693Z,3.34
2024-03-02T13:24:38.631Z,3.10
2024-03-02T13:29:40.728Z,3.10
2024-03-02T13:34:43.116Z,2.89
2024-03-02T13:39:45.092Z,2.83
2024-03-02T13:44:47.457Z,2.81
2024-03-02T13:49:49.964Z,2.73
2024-03-02T13:54:52.180Z,2.78
2024-03-02T13:59:54.358Z,2.85
2024-03-02T14:04:56.471Z,2.71
2024-03-02T14:09:58.436Z,2.66
2024-03-02T14:15:00.408Z,2.42
2024-03-02T14:20:02.471Z,2.40
2024-03-02T14:25:06.952Z,2.18
2024-03-02T14:30:09.817Z,2.21
2024-03-02T14:35:11.897Z,2.14
2024-03-02T14:40:14.015Z,2.03
2024-03-02T14:45:16.035Z,1.97
2024-03-02T14:50:18.114Z,1.95
2024-03-02T14:55:20.177Z,2.01
2024-03-02T15:00:23.516Z,2.07
2024-03-02T15:05:25.739Z,1.94
2024-03-02T15:10:27.703Z,1.97
2024-03-02T15:15:29.653Z,1.88
2024-03-02T15:20:31.634Z,1.94
2024-03-02T15:25:33.794Z,1.96
2024-03-02T15:30:35.892Z,1.93
2024-03-02T15:35:38.024Z,1.93
2024-03-02T15:40:58.567Z,1.86
2024-03-02T15:46:00.719Z,1.81
2024-03-02T15:51:05.745Z,1.77
2024-03-02T15:56:09.997Z,1.69
2024-03-02T16:01:12.277Z,1.74
2024-03-02T16:06:14.394Z,1.68
2024-03-02T16:11:16.565Z,1.61
2024-03-02T16:16:18.756Z,1.73
2024-03-02T16:21:21.516Z,1.66
2024-03-02T16:26:24.223Z,1.63
2024-03-02T16:31:26.195Z,1.63
2024-03-02T16:36:28.227Z,1.67
2024-03-02T16:41:30.247Z,1.60
2024-03-02T16:46:32.161Z,1.61
2024-03-02T16:51:43.752Z,1.58
2024-03-02T16:56:45.924Z,1.57
2024-03-02T17:01:48.016Z,1.61
2024-03-02T17:06:50.268Z,1.56
2024-03-02T17:11:52.412Z,1.48
2024-03-02T17:16:54.497Z,1.48
2024-03-02T17:21:56.520Z,1.35
2024-03-02T17:26:58.605Z,1.37
2024-03-02T17:32:00.701Z,1.33
2024-03-02T17:37:02.893Z,1.41
2024-03-02T17:42:05.296Z,1.39
2024-03-02T17:47:07.533Z,1.35
2024-03-02T17:52:10.925Z,1.34
2024-03-02T17:57:12.951Z,1.31
2024-03-02T18:02:14.974Z,1.20
2024-03-02T18:07:17.132Z,1.01
2024-03-02T18:12:19.168Z,0.99
2024-03-02T18:17:21.128Z,0.88
2024-03-02T18:22:23.184Z,0.70
2024-03-02T18:27:25.175Z,0.71
2024-03-02T18:32:27.097Z,0.59
2024-03-02T18:37:29.036Z,0.56
2024-03-02T18:42:49.481Z,0.45
2024-03-02T18:47:51.479Z,0.39
2024-03-02T18:52:53.441Z,0.31
2024-03-02T18:57:55.550Z,0.27
2024-03-02T19:02:57.505Z,0.13
2024-03-02T19:07:59.449Z,0.05
2024-03-02T19:13:01.581Z,0.04
2024-03-02T19:18:03.858Z,-0.05
2024-03-02T19:23:05.988Z,-0.05
2024-03-02T19:28:08.049Z,-0.05
2024-03-02T19:33:10.151Z,-0.10
2024-03-02T19:38:12.204Z,-0.12
2024-03-02T19:43:14.205Z,-0.12
2024-03-02T19:48:34.905Z,-0.16
2024-03-02T19:53:36.930Z,-0.17
2024-03-02T19:58:38.961Z,-0.18
2024-03-02T20:03:41.093Z,-0.22
2024-03-02T20:08:43.095Z,-0.24
2024-03-02T20:13:45.133Z,-0.33
2024-03-02T20:18:47.181Z,-0.40
2024-03-02T20:23:49.475Z,-0.55
2024-03-02T20:29:10.152Z,-0.57
2024-03-02T20:34:12.340Z,-0.58
2024-03-02T20:39:14.579Z,-0.64
2024-03-02T20:44:17.186Z,-0.62
2024-03-02T20:49:19.554Z,-0.65
2024-03-02T20:54:21.658Z,-0.69
2024-03-02T20:59:23.638Z,-0.75
2024-03-02T21:04:25.623Z,-0.82
2024-03-02T21:09:27.745Z,-0.86
2024-03-02T21:14:29.895Z,-0.94
2024-03-02T21:19:31.918Z,-0.96
2024-03-02T21:24:34.401Z,-0.99
2024-03-02T21:29:36.733Z,-1.04
2024-03-02T21:34:38.938Z,-1.10
2024-03-02T21:39:46.918Z,-1.10
2024-03-02T21:44:49.659Z,-1.15
2024-03-02T21:49:51.700Z,-1.19
2024-03-02T21:54:53.892Z,-1.18
2024-03-02T21:59:56.667Z,-1.21
2024-03-02T22:04:58.673Z,-1.23
2024-03-02T22:10:00.758Z,-1.25
2024-03-02T22:15:02.937Z,-1.25
2024-03-02T22:20:06.687Z,-1.23
2024-03-02T22:25:08.758Z,-1.32
2024-03-02T22:30:11.322Z,-1.31
2024-03-02T22:35:13.108Z,-1.38
2024-03-02T22:40:15.441Z,-1.34
2024-03-02T22:45:18.133Z,-1.41
2024-03-02T22:50:20.262Z,-1.38
2024-03-02T22:55:22.395Z,-1.39
2024-03-02T23:00:24.507Z,-1.40
2024-03-02T23:05:26.531Z,-1.39
2024-03-02T23:10:28.793Z,-1.45
2024-03-02T23:15:31.718Z,-1.53
2024-03-02T23:20:33.969Z,-1.58
2024-03-02T23:25:36.127Z,-1.62
2024-03-02T23:30:38.300Z,-1.65
2024-03-02T23:35:40.535Z,-1.67
2024-03-02T23:40:42.742Z,-1.72
2024-03-02T23:45:44.880Z,-1.73
2024-03-02T23:50:47.036Z,-1.77
2024-03-02T23:55:52.691Z,-1.79
